N605VV CYWL-KGEG
Flight info
| Callsign | N605VV |
|---|---|
| Flight time | 0h 50m |
| Altitude | 39000 |
| Route | GEG |
| Aircraft | CL60/M-SBDE1E2E3FGHIJ1J4J5J7M3RWXYZ/LB1V1D1 |
Departure
| Time | 2026-05-04 13:48 |
|---|---|
| Airport | Williams Lake Airport (CYWL) |
Arrival
| Time | 2026-05-04 14:38 |
|---|---|
| Airport | Spokane International Airport (KGEG) |
| Time | Latitude | Longitude | Altitude | Speed | Heading |
|---|---|---|---|---|---|
| 2026-05-04 13:31 | 52.18687 | -122.06595 | 3095 ft | 0 kts | 312° |
| 2026-05-04 13:45 | 52.18690 | -122.06599 | 3095 ft | 2 kts | 320° |
| 2026-05-04 13:46 | 52.18721 | -122.06625 | 3095 ft | 6 kts | 342° |
| 2026-05-04 13:46 | 52.18776 | -122.06632 | 3095 ft | 9 kts | 359° |
| 2026-05-04 13:46 | 52.18839 | -122.06633 | 3095 ft | 3 kts | 0° |
| 2026-05-04 13:46 | 52.18878 | -122.06634 | 3095 ft | 7 kts | 359° |
| 2026-05-04 13:47 | 52.18940 | -122.06619 | 3095 ft | 10 kts | 30° |
| 2026-05-04 13:47 | 52.18986 | -122.06551 | 3095 ft | 6 kts | 80° |
| 2026-05-04 13:47 | 52.18953 | -122.06471 | 3095 ft | 12 kts | 134° |
| 2026-05-04 13:47 | 52.18722 | -122.06082 | 3093 ft | 101 kts | 135° |
| 2026-05-04 13:48 | 52.18039 | -122.04898 | 3311 ft | 169 kts | 133° |
| 2026-05-04 13:48 | 52.17182 | -122.03419 | 4131 ft | 194 kts | 132° |
| 2026-05-04 13:48 | 52.16204 | -122.01690 | 4951 ft | 230 kts | 128° |
| 2026-05-04 13:48 | 52.15166 | -121.99531 | 5992 ft | 252 kts | 124° |
| 2026-05-04 13:49 | 52.13971 | -121.97540 | 7473 ft | 258 kts | 145° |
| 2026-05-04 13:49 | 52.12416 | -121.96307 | 8308 ft | 285 kts | 158° |
| 2026-05-04 13:49 | 52.10573 | -121.95137 | 9357 ft | 304 kts | 159° |
| 2026-05-04 13:49 | 52.08552 | -121.93853 | 10572 ft | 319 kts | 159° |
| 2026-05-04 13:50 | 52.06396 | -121.92481 | 11482 ft | 344 kts | 159° |
| 2026-05-04 13:50 | 52.04212 | -121.90749 | 12557 ft | 358 kts | 147° |
| 2026-05-04 13:50 | 52.02145 | -121.88537 | 13673 ft | 367 kts | 146° |
| 2026-05-04 13:50 | 51.99999 | -121.86232 | 14838 ft | 374 kts | 146° |
| 2026-05-04 13:51 | 51.97805 | -121.83883 | 15904 ft | 382 kts | 146° |
| 2026-05-04 13:51 | 51.95593 | -121.81520 | 16919 ft | 389 kts | 146° |
| 2026-05-04 13:51 | 51.93314 | -121.79091 | 17919 ft | 396 kts | 146° |
| 2026-05-04 13:51 | 51.91009 | -121.76637 | 18853 ft | 403 kts | 146° |
| 2026-05-04 13:52 | 51.86259 | -121.71594 | 20638 ft | 416 kts | 146° |
| 2026-05-04 13:52 | 51.83829 | -121.69019 | 21449 ft | 423 kts | 146° |
| 2026-05-04 13:52 | 51.81356 | -121.66404 | 22262 ft | 429 kts | 146° |
| 2026-05-04 13:53 | 51.78826 | -121.63732 | 23071 ft | 435 kts | 146° |
| 2026-05-04 13:53 | 51.76295 | -121.61063 | 23836 ft | 441 kts | 146° |
| 2026-05-04 13:53 | 51.73722 | -121.58354 | 24583 ft | 447 kts | 145° |
| 2026-05-04 13:54 | 51.68457 | -121.52824 | 26059 ft | 457 kts | 145° |
| 2026-05-04 13:54 | 51.65783 | -121.50021 | 26740 ft | 463 kts | 145° |
| 2026-05-04 13:54 | 51.60320 | -121.44307 | 27984 ft | 473 kts | 144° |
| 2026-05-04 13:55 | 51.57591 | -121.41459 | 28550 ft | 478 kts | 144° |
| 2026-05-04 13:55 | 51.51924 | -121.35558 | 29647 ft | 487 kts | 144° |
| 2026-05-04 13:55 | 51.49101 | -121.32626 | 30161 ft | 491 kts | 145° |
| 2026-05-04 13:56 | 51.46223 | -121.29642 | 30607 ft | 496 kts | 145° |
| 2026-05-04 13:56 | 51.43388 | -121.26704 | 31061 ft | 500 kts | 145° |
| 2026-05-04 13:56 | 51.37483 | -121.20604 | 31912 ft | 508 kts | 144° |
| 2026-05-04 13:57 | 51.34584 | -121.17615 | 32270 ft | 512 kts | 144° |
| 2026-05-04 13:57 | 51.31598 | -121.14543 | 32627 ft | 516 kts | 144° |
| 2026-05-04 13:58 | 51.22532 | -121.05246 | 33998 ft | 517 kts | 144° |
| 2026-05-04 13:58 | 51.16614 | -120.99201 | 35007 ft | 515 kts | 143° |
| 2026-05-04 13:58 | 51.13703 | -120.96235 | 35540 ft | 513 kts | 143° |
| 2026-05-04 13:59 | 51.10699 | -120.93179 | 36014 ft | 513 kts | 143° |
| 2026-05-04 13:59 | 51.07732 | -120.90163 | 36496 ft | 512 kts | 143° |
| 2026-05-04 13:59 | 51.01725 | -120.84075 | 37421 ft | 510 kts | 143° |
| 2026-05-04 14:00 | 50.98735 | -120.81050 | 37801 ft | 510 kts | 143° |
| 2026-05-04 14:00 | 50.92766 | -120.75026 | 38474 ft | 511 kts | 142° |
| 2026-05-04 14:00 | 50.89771 | -120.72012 | 38844 ft | 511 kts | 143° |
| 2026-05-04 14:01 | 50.86747 | -120.68971 | 38992 ft | 514 kts | 142° |
| 2026-05-04 14:01 | 50.84232 | -120.66444 | 38984 ft | 518 kts | 142° |
| 2026-05-04 14:02 | 50.74957 | -120.57155 | 38962 ft | 532 kts | 142° |
| 2026-05-04 14:02 | 50.68918 | -120.51135 | 38953 ft | 536 kts | 143° |
| 2026-05-04 14:03 | 50.62610 | -120.44869 | 38957 ft | 536 kts | 142° |
| 2026-05-04 14:03 | 50.56296 | -120.38617 | 38966 ft | 534 kts | 143° |
| 2026-05-04 14:04 | 50.46941 | -120.29387 | 38993 ft | 534 kts | 143° |
| 2026-05-04 14:04 | 50.40699 | -120.23254 | 38999 ft | 533 kts | 143° |
| 2026-05-04 14:05 | 50.31243 | -120.13998 | 39013 ft | 534 kts | 143° |
| 2026-05-04 14:06 | 50.24967 | -120.07880 | 39010 ft | 534 kts | 143° |
| 2026-05-04 14:06 | 50.18668 | -120.01717 | 39019 ft | 531 kts | 141° |
| 2026-05-04 14:07 | 50.12917 | -119.94679 | 39020 ft | 526 kts | 135° |
| 2026-05-04 14:07 | 50.07234 | -119.87475 | 39026 ft | 526 kts | 135° |
| 2026-05-04 14:08 | 50.01550 | -119.80293 | 39023 ft | 525 kts | 135° |
| 2026-05-04 14:08 | 49.95890 | -119.73166 | 39026 ft | 525 kts | 135° |
| 2026-05-04 14:09 | 49.87373 | -119.62482 | 38992 ft | 524 kts | 135° |
| 2026-05-04 14:10 | 49.78879 | -119.51877 | 38952 ft | 524 kts | 135° |
| 2026-05-04 14:10 | 49.73207 | -119.44822 | 38994 ft | 524 kts | 135° |
| 2026-05-04 14:11 | 49.67544 | -119.37801 | 39009 ft | 524 kts | 135° |
| 2026-05-04 14:11 | 49.58999 | -119.27248 | 38991 ft | 524 kts | 136° |
| 2026-05-04 14:12 | 49.53321 | -119.20262 | 39000 ft | 524 kts | 136° |
| 2026-05-04 14:13 | 49.44776 | -119.09790 | 38994 ft | 524 kts | 136° |
| 2026-05-04 14:13 | 49.39097 | -119.02856 | 38983 ft | 523 kts | 135° |
| 2026-05-04 14:14 | 49.33406 | -118.95931 | 38952 ft | 523 kts | 135° |
| 2026-05-04 14:14 | 49.24848 | -118.85553 | 38928 ft | 522 kts | 136° |
| 2026-05-04 14:15 | 49.13483 | -118.71845 | 38922 ft | 522 kts | 135° |
| 2026-05-04 14:16 | 49.04910 | -118.61558 | 38919 ft | 522 kts | 135° |
| 2026-05-04 14:17 | 48.96344 | -118.51327 | 38891 ft | 522 kts | 135° |
| 2026-05-04 14:17 | 48.90659 | -118.44566 | 37778 ft | 513 kts | 135° |
| 2026-05-04 14:18 | 48.87875 | -118.41264 | 37155 ft | 507 kts | 135° |
| 2026-05-04 14:18 | 48.82504 | -118.34904 | 35916 ft | 496 kts | 136° |
| 2026-05-04 14:19 | 48.77059 | -118.28474 | 34606 ft | 492 kts | 136° |
| 2026-05-04 14:19 | 48.74363 | -118.25293 | 33955 ft | 493 kts | 137° |
| 2026-05-04 14:19 | 48.71666 | -118.22115 | 33291 ft | 494 kts | 137° |
| 2026-05-04 14:19 | 48.68946 | -118.18916 | 32625 ft | 494 kts | 137° |
| 2026-05-04 14:20 | 48.66233 | -118.15728 | 31971 ft | 493 kts | 137° |
| 2026-05-04 14:20 | 48.63527 | -118.12555 | 31307 ft | 490 kts | 138° |
| 2026-05-04 14:20 | 48.60839 | -118.09409 | 30654 ft | 485 kts | 138° |
| 2026-05-04 14:21 | 48.55576 | -118.03261 | 29387 ft | 474 kts | 138° |
| 2026-05-04 14:21 | 48.52998 | -118.00256 | 28771 ft | 469 kts | 138° |
| 2026-05-04 14:21 | 48.50431 | -117.97266 | 28144 ft | 464 kts | 139° |
| 2026-05-04 14:21 | 48.47874 | -117.94292 | 27522 ft | 460 kts | 139° |
| 2026-05-04 14:22 | 48.45366 | -117.91378 | 26911 ft | 455 kts | 139° |
| 2026-05-04 14:22 | 48.42876 | -117.88490 | 26307 ft | 451 kts | 139° |
| 2026-05-04 14:22 | 48.40410 | -117.85632 | 25716 ft | 447 kts | 139° |
| 2026-05-04 14:22 | 48.37962 | -117.82798 | 25123 ft | 444 kts | 139° |
| 2026-05-04 14:23 | 48.33095 | -117.77175 | 23951 ft | 436 kts | 139° |
| 2026-05-04 14:23 | 48.30692 | -117.74404 | 23374 ft | 433 kts | 139° |
| 2026-05-04 14:23 | 48.28298 | -117.71647 | 22797 ft | 430 kts | 139° |
| 2026-05-04 14:24 | 48.25954 | -117.68950 | 22227 ft | 426 kts | 139° |
| 2026-05-04 14:24 | 48.23598 | -117.66242 | 21662 ft | 421 kts | 140° |
| 2026-05-04 14:24 | 48.21301 | -117.63605 | 21109 ft | 417 kts | 140° |
| 2026-05-04 14:24 | 48.18998 | -117.60966 | 20550 ft | 413 kts | 140° |
| 2026-05-04 14:25 | 48.16723 | -117.58361 | 20012 ft | 408 kts | 140° |
| 2026-05-04 14:25 | 48.12273 | -117.53274 | 18953 ft | 400 kts | 140° |
| 2026-05-04 14:25 | 48.10054 | -117.50742 | 18430 ft | 398 kts | 140° |
| 2026-05-04 14:26 | 48.07855 | -117.48235 | 17838 ft | 394 kts | 140° |
| 2026-05-04 14:26 | 48.05691 | -117.45771 | 17358 ft | 389 kts | 140° |
| 2026-05-04 14:26 | 48.03543 | -117.43327 | 16849 ft | 386 kts | 141° |
| 2026-05-04 14:26 | 48.01471 | -117.40974 | 16388 ft | 384 kts | 141° |
| 2026-05-04 14:27 | 47.99173 | -117.38841 | 15900 ft | 378 kts | 154° |
| 2026-05-04 14:27 | 47.96697 | -117.37713 | 15192 ft | 373 kts | 172° |
| 2026-05-04 14:27 | 47.94166 | -117.37660 | 14699 ft | 359 kts | 188° |
| 2026-05-04 14:27 | 47.91757 | -117.38557 | 14006 ft | 351 kts | 204° |
| 2026-05-04 14:28 | 47.89673 | -117.40279 | 13514 ft | 337 kts | 218° |
| 2026-05-04 14:28 | 47.87850 | -117.42361 | 13118 ft | 329 kts | 220° |
| 2026-05-04 14:28 | 47.86017 | -117.44493 | 12672 ft | 329 kts | 220° |
| 2026-05-04 14:28 | 47.84233 | -117.46559 | 12239 ft | 324 kts | 220° |
| 2026-05-04 14:29 | 47.80727 | -117.50617 | 11392 ft | 315 kts | 220° |
| 2026-05-04 14:29 | 47.77388 | -117.54476 | 10586 ft | 307 kts | 219° |
| 2026-05-04 14:30 | 47.75703 | -117.56422 | 10199 ft | 302 kts | 220° |
| 2026-05-04 14:30 | 47.74066 | -117.58312 | 9784 ft | 299 kts | 220° |
| 2026-05-04 14:30 | 47.70804 | -117.62072 | 9003 ft | 292 kts | 220° |
| 2026-05-04 14:31 | 47.69199 | -117.63921 | 8618 ft | 289 kts | 220° |
| 2026-05-04 14:31 | 47.66056 | -117.67535 | 7860 ft | 281 kts | 220° |
| 2026-05-04 14:32 | 47.63059 | -117.70976 | 7171 ft | 260 kts | 220° |
| 2026-05-04 14:32 | 47.61662 | -117.72577 | 6806 ft | 248 kts | 220° |
| 2026-05-04 14:32 | 47.60310 | -117.74088 | 6489 ft | 236 kts | 217° |
| 2026-05-04 14:32 | 47.58849 | -117.75018 | 6155 ft | 225 kts | 194° |
| 2026-05-04 14:33 | 47.57352 | -117.75091 | 5883 ft | 203 kts | 172° |
| 2026-05-04 14:33 | 47.56078 | -117.74520 | 5627 ft | 183 kts | 152° |
| 2026-05-04 14:33 | 47.55078 | -117.73528 | 5404 ft | 159 kts | 135° |
| 2026-05-04 14:33 | 47.54382 | -117.72349 | 5208 ft | 150 kts | 119° |
| 2026-05-04 14:34 | 47.53906 | -117.71006 | 4976 ft | 144 kts | 106° |
| 2026-05-04 14:34 | 47.53667 | -117.69595 | 4790 ft | 139 kts | 93° |
| 2026-05-04 14:34 | 47.53648 | -117.68198 | 4611 ft | 135 kts | 81° |
| 2026-05-04 14:34 | 47.53834 | -117.66844 | 4432 ft | 132 kts | 69° |
| 2026-05-04 14:35 | 47.54204 | -117.65602 | 4259 ft | 130 kts | 57° |
| 2026-05-04 14:35 | 47.54736 | -117.64518 | 4080 ft | 129 kts | 45° |
| 2026-05-04 14:35 | 47.55352 | -117.63563 | 3916 ft | 128 kts | 44° |
| 2026-05-04 14:35 | 47.55968 | -117.62608 | 3747 ft | 128 kts | 44° |
| 2026-05-04 14:36 | 47.56590 | -117.61639 | 3561 ft | 128 kts | 45° |
| 2026-05-04 14:36 | 47.57204 | -117.60699 | 3436 ft | 129 kts | 44° |
| 2026-05-04 14:36 | 47.57840 | -117.59753 | 3277 ft | 128 kts | 44° |
| 2026-05-04 14:36 | 47.58481 | -117.58828 | 3084 ft | 128 kts | 46° |
| 2026-05-04 14:37 | 47.59107 | -117.57893 | 2933 ft | 127 kts | 45° |
| 2026-05-04 14:37 | 47.59726 | -117.56951 | 2805 ft | 127 kts | 45° |
| 2026-05-04 14:37 | 47.60322 | -117.56042 | 2637 ft | 127 kts | 44° |
| 2026-05-04 14:37 | 47.60942 | -117.55113 | 2446 ft | 127 kts | 45° |
| 2026-05-04 14:38 | 47.61505 | -117.54257 | 2377 ft | 106 kts | 46° |
| 2026-05-04 14:38 | 47.61855 | -117.53732 | 2371 ft | 39 kts | 44° |
| 2026-05-04 14:38 | 47.62020 | -117.53484 | 2367 ft | 27 kts | 46° |
| 2026-05-04 14:38 | 47.62114 | -117.53339 | 2365 ft | 13 kts | 44° |
| 2026-05-04 14:39 | 47.62086 | -117.53218 | 2365 ft | 14 kts | 133° |
| 2026-05-04 14:39 | 47.62029 | -117.53132 | 2366 ft | 13 kts | 130° |
| 2026-05-04 14:39 | 47.61954 | -117.53076 | 2367 ft | 4 kts | 179° |
| 2026-05-04 14:40 | 47.61883 | -117.53076 | 2369 ft | 14 kts | 179° |
| 2026-05-04 14:40 | 47.61795 | -117.53040 | 2370 ft | 14 kts | 102° |
| 2026-05-04 14:40 | 47.61818 | -117.52939 | 2370 ft | 10 kts | 18° |
| 2026-05-04 14:40 | 47.61840 | -117.52831 | 2370 ft | 13 kts | 94° |
| 2026-05-04 14:41 | 47.61840 | -117.52696 | 2370 ft | 14 kts | 65° |
| 2026-05-04 14:41 | 47.61893 | -117.52678 | 2368 ft | 6 kts | 316° |
| 2026-05-04 14:41 | 47.61885 | -117.52705 | 2369 ft | 0 kts | 176° |